sensor_id;sensor_type;location;lat;lon;timestamp;pressure;altitude;pressure_sealevel;temperature;humidity
71774;BME280;59607;52.130;5.430;2024-02-04T00:01:08;102416.00;;;10.27;100.00
71774;BME280;59607;52.130;5.430;2024-02-04T00:03:35;102413.25;;;10.28;100.00
71774;BME280;59607;52.130;5.430;2024-02-04T00:06:05;102405.38;;;10.28;100.00
71774;BME280;59607;52.130;5.430;2024-02-04T00:08:36;102408.94;;;10.27;100.00
71774;BME280;59607;52.130;5.430;2024-02-04T00:11:06;102409.78;;;10.28;100.00
71774;BME280;59607;52.130;5.430;2024-02-04T00:13:40;102425.50;;;10.28;100.00
71774;BME280;59607;52.130;5.430;2024-02-04T00:16:07;102420.50;;;10.24;100.00
71774;BME280;59607;52.130;5.430;2024-02-04T00:18:46;102409.19;;;10.24;100.00
71774;BME280;59607;52.130;5.430;2024-02-04T00:21:19;102396.31;;;10.21;100.00
71774;BME280;59607;52.130;5.430;2024-02-04T00:23:46;102401.56;;;10.21;100.00
71774;BME280;59607;52.130;5.430;2024-02-04T00:26:13;102408.59;;;10.20;100.00
71774;BME280;59607;52.130;5.430;2024-02-04T00:28:42;102405.28;;;10.18;100.00
71774;BME280;59607;52.130;5.430;2024-02-04T00:31:09;102406.19;;;10.17;100.00
71774;BME280;59607;52.130;5.430;2024-02-04T00:33:37;102411.31;;;10.19;100.00
71774;BME280;59607;52.130;5.430;2024-02-04T00:36:07;102398.47;;;10.16;100.00
71774;BME280;59607;52.130;5.430;2024-02-04T00:38:33;102407.41;;;10.13;100.00
71774;BME280;59607;52.130;5.430;2024-02-04T00:41:00;102408.38;;;10.12;100.00
71774;BME280;59607;52.130;5.430;2024-02-04T00:43:32;102397.16;;;10.10;100.00
71774;BME280;59607;52.130;5.430;2024-02-04T00:45:59;102405.03;;;10.10;100.00
71774;BME280;59607;52.130;5.430;2024-02-04T00:48:44;102401.44;;;10.11;100.00
71774;BME280;59607;52.130;5.430;2024-02-04T00:51:15;102399.78;;;10.10;100.00
71774;BME280;59607;52.130;5.430;2024-02-04T00:53:43;102398.94;;;10.09;100.00
71774;BME280;59607;52.130;5.430;2024-02-04T00:56:20;102385.13;;;10.07;100.00
71774;BME280;59607;52.130;5.430;2024-02-04T00:58:50;102394.91;;;10.05;100.00
71774;BME280;59607;52.130;5.430;2024-02-04T01:01:23;102388.81;;;10.05;100.00
71774;BME280;59607;52.130;5.430;2024-02-04T01:03:49;102380.13;;;10.04;100.00
71774;BME280;59607;52.130;5.430;2024-02-04T01:06:19;102390.84;;;10.01;100.00
71774;BME280;59607;52.130;5.430;2024-02-04T01:08:45;102387.28;;;10.02;100.00
71774;BME280;59607;52.130;5.430;2024-02-04T01:11:12;102389.19;;;10.00;100.00
71774;BME280;59607;52.130;5.430;2024-02-04T01:13:45;102390.97;;;9.99;100.00
71774;BME280;59607;52.130;5.430;2024-02-04T01:16:14;102385.97;;;9.96;100.00
71774;BME280;59607;52.130;5.430;2024-02-04T01:18:40;102383.34;;;9.96;100.00
71774;BME280;59607;52.130;5.430;2024-02-04T01:21:08;102367.63;;;9.96;100.00
71774;BME280;59607;52.130;5.430;2024-02-04T01:23:38;102358.09;;;9.95;100.00
71774;BME280;59607;52.130;5.430;2024-02-04T01:26:04;102367.63;;;9.96;100.00
71774;BME280;59607;52.130;5.430;2024-02-04T01:28:38;102368.47;;;9.97;100.00
71774;BME280;59607;52.130;5.430;2024-02-04T01:31:05;102367.63;;;9.96;100.00
71774;BME280;59607;52.130;5.430;2024-02-04T01:33:32;102380.72;;;9.96;100.00
71774;BME280;59607;52.130;5.430;2024-02-04T01:36:01;102388.47;;;9.98;100.00
71774;BME280;59607;52.130;5.430;2024-02-04T01:38:27;102382.53;;;9.96;100.00
71774;BME280;59607;52.130;5.430;2024-02-04T01:41:00;102380.97;;;9.93;100.00
71774;BME280;59607;52.130;5.430;2024-02-04T01:43:30;102383.94;;;9.88;100.00
71774;BME280;59607;52.130;5.430;2024-02-04T01:45:57;102392.91;;;9.86;100.00
71774;BME280;59607;52.130;5.430;2024-02-04T01:48:34;102384.06;;;9.87;100.00
71774;BME280;59607;52.130;5.430;2024-02-04T01:51:10;102379.91;;;9.84;100.00
71774;BME280;59607;52.130;5.430;2024-02-04T01:53:38;102380.72;;;9.85;100.00
71774;BME280;59607;52.130;5.430;2024-02-04T01:56:10;102381.81;;;9.82;100.00
71774;BME280;59607;52.130;5.430;2024-02-04T01:58:40;102378.47;;;9.80;100.00
71774;BME280;59607;52.130;5.430;2024-02-04T02:01:06;102383.72;;;9.80;100.00
71774;BME280;59607;52.130;5.430;2024-02-04T02:03:50;102381.09;;;9.80;100.00
71774;BME280;59607;52.130;5.430;2024-02-04T02:06:19;102391.56;;;9.80;100.00
71774;BME280;59607;52.130;5.430;2024-02-04T02:08:46;102384.56;;;9.81;100.00
71774;BME280;59607;52.130;5.430;2024-02-04T02:14:27;102395.88;;;9.81;100.00
71774;BME280;59607;52.130;5.430;2024-02-04T02:17:00;102402.16;;;9.79;100.00
71774;BME280;59607;52.130;5.430;2024-02-04T02:19:40;102404.66;;;9.80;100.00
71774;BME280;59607;52.130;5.430;2024-02-04T02:25:01;102386.69;;;9.75;100.00
71774;BME280;59607;52.130;5.430;2024-02-04T02:27:31;102379.91;;;9.73;100.00
71774;BME280;59607;52.130;5.430;2024-02-04T02:29:57;102373.22;;;9.69;100.00
71774;BME280;59607;52.130;5.430;2024-02-04T02:32:29;102376.81;;;9.68;100.00
71774;BME280;59607;52.130;5.430;2024-02-04T02:34:56;102373.59;;;9.64;100.00
71774;BME280;59607;52.130;5.430;2024-02-04T02:40:44;102369.06;;;9.55;100.00
71774;BME280;59607;52.130;5.430;2024-02-04T02:43:12;102365.59;;;9.54;100.00
71774;BME280;59607;52.130;5.430;2024-02-04T02:45:43;102366.56;;;9.53;100.00
71774;BME280;59607;52.130;5.430;2024-02-04T02:48:11;102368.34;;;9.53;100.00
71774;BME280;59607;52.130;5.430;2024-02-04T02:50:41;102373.56;;;9.53;100.00
71774;BME280;59607;52.130;5.430;2024-02-04T02:53:11;102380.50;;;9.54;100.00
71774;BME280;59607;52.130;5.430;2024-02-04T02:55:38;102379.53;;;9.55;100.00
71774;BME280;59607;52.130;5.430;2024-02-04T02:58:04;102377.88;;;9.54;100.00
71774;BME280;59607;52.130;5.430;2024-02-04T03:00:35;102368.34;;;9.53;100.00
71774;BME280;59607;52.130;5.430;2024-02-04T03:03:02;102373.56;;;9.53;100.00
71774;BME280;59607;52.130;5.430;2024-02-04T03:05:45;102369.19;;;9.53;100.00
71774;BME280;59607;52.130;5.430;2024-02-04T03:08:15;102369.06;;;9.55;100.00
71774;BME280;59607;52.130;5.430;2024-02-04T03:10:41;102362.16;;;9.54;100.00
71774;BME280;59607;52.130;5.430;2024-02-04T03:13:07;102366.44;;;9.55;100.00
71774;BME280;59607;52.130;5.430;2024-02-04T03:15:55;102377.63;;;9.57;100.00
71774;BME280;59607;52.130;5.430;2024-02-04T03:18:21;102370.84;;;9.54;100.00
71774;BME280;59607;52.130;5.430;2024-02-04T03:20:48;102381.44;;;9.53;100.00
71774;BME280;59607;52.130;5.430;2024-02-04T03:23:23;102375.47;;;9.50;100.00
71774;BME280;59607;52.130;5.430;2024-02-04T03:25:50;102366.06;;;9.48;100.00
71774;BME280;59607;52.130;5.430;2024-02-04T03:28:16;102362.84;;;9.44;100.00
71774;BME280;59607;52.130;5.430;2024-02-04T03:31:03;102368.81;;;9.46;100.00
71774;BME280;59607;52.130;5.430;2024-02-04T03:33:29;102376.66;;;9.46;100.00
71774;BME280;59607;52.130;5.430;2024-02-04T03:35:56;102368.81;;;9.46;100.00
71774;BME280;59607;52.130;5.430;2024-02-04T03:38:28;102368.91;;;9.45;100.00
71774;BME280;59607;52.130;5.430;2024-02-04T03:40:57;102365.69;;;9.41;100.00
71774;BME280;59607;52.130;5.430;2024-02-04T03:43:24;102365.00;;;9.39;100.00
71774;BME280;59607;52.130;5.430;2024-02-04T03:45:53;102366.16;;;9.35;100.00
71774;BME280;59607;52.130;5.430;2024-02-04T03:48:22;102362.72;;;9.34;100.00
71774;BME280;59607;52.130;5.430;2024-02-04T03:50:49;102374.97;;;9.34;100.00
71774;BME280;59607;52.130;5.430;2024-02-04T03:53:21;102376.88;;;9.32;100.00
71774;BME280;59607;52.130;5.430;2024-02-04T03:55:49;102386.50;;;9.31;100.00
71774;BME280;59607;52.130;5.430;2024-02-04T03:58:24;102396.06;;;9.32;100.00
71774;BME280;59607;52.130;5.430;2024-02-04T04:00:56;102383.06;;;9.31;100.00
71774;BME280;59607;52.130;5.430;2024-02-04T04:03:28;102386.75;;;9.28;100.00
71774;BME280;59607;52.130;5.430;2024-02-04T04:05:55;102372.94;;;9.26;100.00
71774;BME280;59607;52.130;5.430;2024-02-04T04:08:29;102377.34;;;9.25;100.00
71774;BME280;59607;52.130;5.430;2024-02-04T04:10:56;102386.25;;;9.23;100.00
71774;BME280;59607;52.130;5.430;2024-02-04T04:13:25;102378.31;;;9.24;100.00
71774;BME280;59607;52.130;5.430;2024-02-04T04:15:56;102370.53;;;9.23;100.00
71774;BME280;59607;52.130;5.430;2024-02-04T04:18:22;102364.50;;;9.22;100.00
71774;BME280;59607;52.130;5.430;2024-02-04T04:20:49;102364.38;;;9.24;100.00
71774;BME280;59607;52.130;5.430;2024-02-04T04:23:18;102359.97;;;9.24;100.00
71774;BME280;59607;52.130;5.430;2024-02-04T04:25:45;102358.16;;;9.25;100.00
71774;BME280;59607;52.130;5.430;2024-02-04T04:28:12;102360.91;;;9.23;100.00
71774;BME280;59607;52.130;5.430;2024-02-04T04:30:45;102354.00;;;9.22;100.00
71774;BME280;59607;52.130;5.430;2024-02-04T04:33:17;102363.53;;;9.23;100.00
71774;BME280;59607;52.130;5.430;2024-02-04T04:35:56;102359.97;;;9.24;100.00
71774;BME280;59607;52.130;5.430;2024-02-04T04:38:42;102366.03;;;9.25;100.00
71774;BME280;59607;52.130;5.430;2024-02-04T04:41:08;102354.63;;;9.26;100.00
71774;BME280;59607;52.130;5.430;2024-02-04T04:43:38;102361.75;;;9.24;100.00
71774;BME280;59607;52.130;5.430;2024-02-04T04:46:22;102351.41;;;9.22;100.00
71774;BME280;59607;52.130;5.430;2024-02-04T04:48:54;102351.50;;;9.21;100.00
71774;BME280;59607;52.130;5.430;2024-02-04T04:51:27;102342.81;;;9.20;100.00
71774;BME280;59607;52.130;5.430;2024-02-04T04:54:03;102340.31;;;9.19;100.00
71774;BME280;59607;52.130;5.430;2024-02-04T04:56:40;102330.81;;;9.18;100.00
71774;BME280;59607;52.130;5.430;2024-02-04T04:59:08;102319.59;;;9.16;100.00
71774;BME280;59607;52.130;5.430;2024-02-04T05:01:55;102329.34;;;9.13;100.00
71774;BME280;59607;52.130;5.430;2024-02-04T05:04:22;102322.22;;;9.16;100.00
71774;BME280;59607;52.130;5.430;2024-02-04T05:06:52;102321.63;;;9.12;100.00
71774;BME280;59607;52.130;5.430;2024-02-04T05:09:22;102323.41;;;9.11;100.00
71774;BME280;59607;52.130;5.430;2024-02-04T05:11:52;102331.28;;;9.11;100.00
71774;BME280;59607;52.130;5.430;2024-02-04T05:14:18;102319.97;;;9.11;100.00
71774;BME280;59607;52.130;5.430;2024-02-04T05:16:51;102325.19;;;9.11;100.00
71774;BME280;59607;52.130;5.430;2024-02-04T05:19:18;102320.81;;;9.11;100.00
71774;BME280;59607;52.130;5.430;2024-02-04T05:21:56;102324.22;;;9.12;100.00
71774;BME280;59607;52.130;5.430;2024-02-04T05:24:22;102328.53;;;9.13;100.00
71774;BME280;59607;52.130;5.430;2024-02-04T05:26:49;102333.88;;;9.11;100.00
71774;BME280;59607;52.130;5.430;2024-02-04T05:29:22;102323.53;;;9.10;100.00
71774;BME280;59607;52.130;5.430;2024-02-04T05:31:49;102331.47;;;9.08;100.00
71774;BME280;59607;52.130;5.430;2024-02-04T05:34:21;102317.56;;;9.08;100.00
71774;BME280;59607;52.130;5.430;2024-02-04T05:36:48;102327.19;;;9.07;100.00
71774;BME280;59607;52.130;5.430;2024-02-04T05:39:23;102317.47;;;9.09;100.00
71774;BME280;59607;52.130;5.430;2024-02-04T05:41:50;102314.97;;;9.08;100.00
71774;BME280;59607;52.130;5.430;2024-02-04T05:44:20;102308.88;;;9.07;100.00
71774;BME280;59607;52.130;5.430;2024-02-04T05:46:49;102295.69;;;9.09;100.00
71774;BME280;59607;52.130;5.430;2024-02-04T05:49:16;102299.13;;;9.09;100.00
71774;BME280;59607;52.130;5.430;2024-02-04T05:51:43;102306.88;;;9.11;100.00
71774;BME280;59607;52.130;5.430;2024-02-04T05:54:13;102304.25;;;9.11;100.00
71774;BME280;59607;52.130;5.430;2024-02-04T05:56:39;102319.00;;;9.12;100.00
71774;BME280;59607;52.130;5.430;2024-02-04T05:59:08;102315.44;;;9.13;100.00
71774;BME280;59607;52.130;5.430;2024-02-04T06:01:35;102308.53;;;9.12;100.00
71774;BME280;59607;52.130;5.430;2024-02-04T06:04:02;102309.38;;;9.12;100.00
71774;BME280;59607;52.130;5.430;2024-02-04T06:06:31;102297.25;;;9.11;100.00
71774;BME280;59607;52.130;5.430;2024-02-04T06:09:08;102279.84;;;9.10;100.00
71774;BME280;59607;52.130;5.430;2024-02-04T06:11:45;102276.41;;;9.10;100.00
71774;BME280;59607;52.130;5.430;2024-02-04T06:14:18;102272.97;;;9.09;100.00
71774;BME280;59607;52.130;5.430;2024-02-04T06:16:44;102276.41;;;9.10;100.00
71774;BME280;59607;52.130;5.430;2024-02-04T06:19:10;102279.03;;;9.10;100.00
71774;BME280;59607;52.130;5.430;2024-02-04T06:21:48;102269.25;;;9.12;100.00
71774;BME280;59607;52.130;5.430;2024-02-04T06:24:14;102270.09;;;9.12;100.00
71774;BME280;59607;52.130;5.430;2024-02-04T06:26:43;102269.38;;;9.10;100.00
71774;BME280;59607;52.130;5.430;2024-02-04T06:29:13;102266.75;;;9.10;100.00
71774;BME280;59607;52.130;5.430;2024-02-04T06:31:44;102268.44;;;9.11;100.00
71774;BME280;59607;52.130;5.430;2024-02-04T06:34:11;102265.00;;;9.11;100.00
71774;BME280;59607;52.130;5.430;2024-02-04T06:36:44;102258.66;;;9.13;100.00
71774;BME280;59607;52.130;5.430;2024-02-04T06:39:18;102254.28;;;9.14;100.00
71774;BME280;59607;52.130;5.430;2024-02-04T06:41:44;102269.03;;;9.15;100.00
71774;BME280;59607;52.130;5.430;2024-02-04T06:44:11;102269.75;;;9.17;100.00
71774;BME280;59607;52.130;5.430;2024-02-04T06:46:44;102261.66;;;9.20;100.00
71774;BME280;59607;52.130;5.430;2024-02-04T06:49:12;102251.91;;;9.22;100.00
71774;BME280;59607;52.130;5.430;2024-02-04T06:51:46;102258.56;;;9.26;100.00
71774;BME280;59607;52.130;5.430;2024-02-04T06:54:14;102258.56;;;9.26;100.00
71774;BME280;59607;52.130;5.430;2024-02-04T06:56:43;102260.25;;;9.28;100.00
71774;BME280;59607;52.130;5.430;2024-02-04T06:59:17;102266.91;;;9.32;100.00
71774;BME280;59607;52.130;5.430;2024-02-04T07:01:47;102272.75;;;9.35;100.00
71774;BME280;59607;52.130;5.430;2024-02-04T07:04:15;102255.22;;;9.36;100.00
71774;BME280;59607;52.130;5.430;2024-02-04T07:06:42;102274.28;;;9.38;100.00
71774;BME280;59607;52.130;5.430;2024-02-04T07:09:11;102259.53;;;9.37;100.00
71774;BME280;59607;52.130;5.430;2024-02-04T07:11:41;102256.91;;;9.37;100.00
71774;BME280;59607;52.130;5.430;2024-02-04T07:14:11;102248.09;;;9.38;100.00
71774;BME280;59607;52.130;5.430;2024-02-04T07:16:41;102247.03;;;9.41;100.00
71774;BME280;59607;52.130;5.430;2024-02-04T07:19:07;102240.97;;;9.40;100.00
71774;BME280;59607;52.130;5.430;2024-02-04T07:21:37;102232.97;;;9.42;100.00
71774;BME280;59607;52.130;5.430;2024-02-04T07:24:04;102239.63;;;9.46;100.00
71774;BME280;59607;52.130;5.430;2024-02-04T07:26:30;102233.94;;;9.52;100.00
71774;BME280;59607;52.130;5.430;2024-02-04T07:29:00;102231.88;;;9.56;100.00
71774;BME280;59607;52.130;5.430;2024-02-04T07:31:27;102234.97;;;9.61;100.00
71774;BME280;59607;52.130;5.430;2024-02-04T07:33:54;102238.31;;;9.63;100.00
71774;BME280;59607;52.130;5.430;2024-02-04T07:36:26;102238.06;;;9.66;100.00
71774;BME280;59607;52.130;5.430;2024-02-04T07:39:02;102240.69;;;9.66;100.00
71774;BME280;59607;52.130;5.430;2024-02-04T07:41:36;102254.63;;;9.67;100.00
71774;BME280;59607;52.130;5.430;2024-02-04T07:44:03;102250.09;;;9.69;100.00
71774;BME280;59607;52.130;5.430;2024-02-04T07:46:47;102247.22;;;9.72;100.00
71774;BME280;59607;52.130;5.430;2024-02-04T07:49:33;102254.97;;;9.73;100.00
71774;BME280;59607;52.130;5.430;2024-02-04T07:52:00;102258.19;;;9.77;100.00
71774;BME280;59607;52.130;5.430;2024-02-04T07:54:26;102258.06;;;9.79;100.00
71774;BME280;59607;52.130;5.430;2024-02-04T07:56:53;102251.03;;;9.79;100.00
71774;BME280;59607;52.130;5.430;2024-02-04T07:59:24;102248.41;;;9.79;100.00
71774;BME280;59607;52.130;5.430;2024-02-04T08:01:51;102235.19;;;9.81;100.00
71774;BME280;59607;52.130;5.430;2024-02-04T08:04:20;102238.88;;;9.78;100.00
71774;BME280;59607;52.130;5.430;2024-02-04T08:06:50;102237.94;;;9.79;100.00
71774;BME280;59607;52.130;5.430;2024-02-04T08:09:18;102240.56;;;9.79;100.00
71774;BME280;59607;52.130;5.430;2024-02-04T08:11:47;102246.59;;;9.80;100.00
71774;BME280;59607;52.130;5.430;2024-02-04T08:14:16;102240.31;;;9.82;100.00
71774;BME280;59607;52.130;5.430;2024-02-04T08:16:43;102239.47;;;9.82;100.00
71774;BME280;59607;52.130;5.430;2024-02-04T08:19:18;102243.53;;;9.86;100.00
71774;BME280;59607;52.130;5.430;2024-02-04T08:21:47;102243.28;;;9.89;100.00
71774;BME280;59607;52.130;5.430;2024-02-04T08:24:21;102233.72;;;9.88;100.00
71774;BME280;59607;52.130;5.430;2024-02-04T08:26:47;102234.56;;;9.88;100.00
71774;BME280;59607;52.130;5.430;2024-02-04T08:29:21;102237.91;;;9.91;100.00
71774;BME280;59607;52.130;5.430;2024-02-04T08:31:48;102236.94;;;9.92;100.00
71774;BME280;59607;52.130;5.430;2024-02-04T08:34:17;102240.41;;;9.92;100.00
71774;BME280;59607;52.130;5.430;2024-02-04T08:36:47;102235.03;;;9.94;100.00
71774;BME280;59607;52.130;5.430;2024-02-04T08:39:14;102237.66;;;9.94;100.00
71774;BME280;59607;52.130;5.430;2024-02-04T08:41:41;102229.66;;;9.95;100.00
71774;BME280;59607;52.130;5.430;2024-02-04T08:44:10;102224.56;;;9.94;100.00
71774;BME280;59607;52.130;5.430;2024-02-04T08:46:47;102217.50;;;9.94;100.00
71774;BME280;59607;52.130;5.430;2024-02-04T08:49:14;102225.28;;;9.96;100.00
71774;BME280;59607;52.130;5.430;2024-02-04T08:51:40;102222.66;;;9.96;100.00
71774;BME280;59607;52.130;5.430;2024-02-04T08:54:07;102213.22;;;9.93;100.00
71774;BME280;59607;52.130;5.430;2024-02-04T08:56:50;102211.31;;;9.95;100.00
71774;BME280;59607;52.130;5.430;2024-02-04T08:59:21;102215.47;;;9.98;100.00
71774;BME280;59607;52.130;5.430;2024-02-04T09:01:53;102222.53;;;9.97;100.00
71774;BME280;59607;52.130;5.430;2024-02-04T09:04:23;102201.56;;;9.97;100.00
71774;BME280;59607;52.130;5.430;2024-02-04T09:06:50;102205.81;;;9.98;100.00
71774;BME280;59607;52.130;5.430;2024-02-04T09:09:19;102205.69;;;10.00;100.00
71774;BME280;59607;52.130;5.430;2024-02-04T09:11:48;102209.28;;;9.99;100.00
71774;BME280;59607;52.130;5.430;2024-02-04T09:14:15;102200.22;;;10.03;100.00
71774;BME280;59607;52.130;5.430;2024-02-04T09:16:51;102194.59;;;10.08;100.00
71774;BME280;59607;52.130;5.430;2024-02-04T09:19:23;102197.78;;;10.11;100.00
71774;BME280;59607;52.130;5.430;2024-02-04T09:21:54;102211.38;;;10.17;100.00
71774;BME280;59607;52.130;5.430;2024-02-04T09:24:21;102205.03;;;10.19;100.00
71774;BME280;59607;52.130;5.430;2024-02-04T09:26:48;102225.75;;;10.22;100.00
71774;BME280;59607;52.130;5.430;2024-02-04T09:29:17;102229.81;;;10.27;100.00
71774;BME280;59607;52.130;5.430;2024-02-04T09:31:43;102229.41;;;10.31;100.00
71774;BME280;59607;52.130;5.430;2024-02-04T09:34:12;102230.81;;;10.35;100.00
71774;BME280;59607;52.130;5.430;2024-02-04T09:36:45;102228.53;;;10.42;100.00
71774;BME280;59607;52.130;5.430;2024-02-04T09:39:12;102218.63;;;10.46;100.00
71774;BME280;59607;52.130;5.430;2024-02-04T09:41:55;102219.06;;;10.51;100.00
71774;BME280;59607;52.130;5.430;2024-02-04T09:44:25;102215.25;;;10.55;100.00
71774;BME280;59607;52.130;5.430;2024-02-04T09:46:53;102209.75;;;10.58;100.00
71774;BME280;59607;52.130;5.430;2024-02-04T09:49:19;102208.66;;;10.61;100.00
71774;BME280;59607;52.130;5.430;2024-02-04T09:51:49;102208.50;;;10.63;100.00
71774;BME280;59607;52.130;5.430;2024-02-04T09:54:18;102213.50;;;10.66;100.00
71774;BME280;59607;52.130;5.430;2024-02-04T09:56:53;102212.56;;;10.67;100.00
71774;BME280;59607;52.130;5.430;2024-02-04T09:59:20;102215.06;;;10.68;100.00
71774;BME280;59607;52.130;5.430;2024-02-04T10:01:47;102212.19;;;10.71;100.00
71774;BME280;59607;52.130;5.430;2024-02-04T10:04:17;102211.19;;;10.72;100.00
71774;BME280;59607;52.130;5.430;2024-02-04T10:06:44;102216.19;;;10.76;100.00
71774;BME280;59607;52.130;5.430;2024-02-04T10:09:11;102222.16;;;10.78;100.00
71774;BME280;59607;52.130;5.430;2024-02-04T10:11:44;102225.63;;;10.78;100.00
71774;BME280;59607;52.130;5.430;2024-02-04T10:14:10;102228.09;;;10.80;100.00
71774;BME280;59607;52.130;5.430;2024-02-04T10:16:46;102210.56;;;10.80;100.00
71774;BME280;59607;52.130;5.430;2024-02-04T10:19:13;102224.50;;;10.81;100.00
71774;BME280;59607;52.130;5.430;2024-02-04T10:21:42;102221.88;;;10.81;100.00
71774;BME280;59607;52.130;5.430;2024-02-04T10:24:09;102225.22;;;10.83;100.00
71774;BME280;59607;52.130;5.430;2024-02-04T10:26:35;102232.97;;;10.84;100.00
71774;BME280;59607;52.130;5.430;2024-02-04T10:29:14;102213.75;;;10.84;100.00
71774;BME280;59607;52.130;5.430;2024-02-04T10:31:42;102226.47;;;10.89;100.00
71774;BME280;59607;52.130;5.430;2024-02-04T10:34:11;102227.91;;;10.93;100.00
71774;BME280;59607;52.130;5.430;2024-02-04T10:36:40;102222.53;;;10.94;100.00
71774;BME280;59607;52.130;5.430;2024-02-04T10:39:08;102231.91;;;10.97;100.00
71774;BME280;59607;52.130;5.430;2024-02-04T10:41:52;102226.53;;;10.98;100.00
71774;BME280;59607;52.130;5.430;2024-02-04T10:44:32;102225.72;;;10.98;100.00
71774;BME280;59607;52.130;5.430;2024-02-04T10:47:16;102230.72;;;11.01;100.00
71774;BME280;59607;52.130;5.430;2024-02-04T10:49:50;102233.88;;;11.05;100.00
71774;BME280;59607;52.130;5.430;2024-02-04T10:52:17;102227.69;;;11.06;100.00
71774;BME280;59607;52.130;5.430;2024-02-04T10:54:48;102232.81;;;11.07;100.00
71774;BME280;59607;52.130;5.430;2024-02-04T10:57:22;102225.50;;;11.11;100.00
71774;BME280;59607;52.130;5.430;2024-02-04T10:59:59;102225.78;;;11.18;100.00
71774;BME280;59607;52.130;5.430;2024-02-04T11:02:34;102223.47;;;11.25;100.00
71774;BME280;59607;52.130;5.430;2024-02-04T11:05:08;102221.16;;;11.31;100.00
71774;BME280;59607;52.130;5.430;2024-02-04T11:07:38;102207.59;;;11.36;100.00
71774;BME280;59607;52.130;5.430;2024-02-04T11:10:06;102235.25;;;11.30;100.00
71774;BME280;59607;52.130;5.430;2024-02-04T11:12:40;102230.78;;;11.21;100.00
71774;BME280;59607;52.130;5.430;2024-02-04T11:15:15;102230.09;;;11.19;100.00
71774;BME280;59607;52.130;5.430;2024-02-04T11:18:20;102220.94;;;11.13;100.00
71774;BME280;59607;52.130;5.430;2024-02-04T11:21:51;102233.75;;;11.06;100.00
71774;BME280;59607;52.130;5.430;2024-02-04T11:24:14;102232.63;;;10.99;100.00
71774;BME280;59607;52.130;5.430;2024-02-04T11:26:47;102227.06;;;10.92;100.00
71774;BME280;59607;52.130;5.430;2024-02-04T11:29:14;102232.00;;;10.85;100.00
71774;BME280;59607;52.130;5.430;2024-02-04T11:31:48;102226.28;;;10.80;100.00
71774;BME280;59607;52.130;5.430;2024-02-04T11:34:16;102217.47;;;10.81;100.00
71774;BME280;59607;52.130;5.430;2024-02-04T11:36:43;102203.19;;;10.74;100.00
71774;BME280;59607;52.130;5.430;2024-02-04T11:39:18;102206.53;;;10.76;100.00
71774;BME280;59607;52.130;5.430;2024-02-04T11:41:50;102202.94;;;10.77;100.00
71774;BME280;59607;52.130;5.430;2024-02-04T11:44:25;102197.44;;;10.80;100.00
71774;BME280;59607;52.130;5.430;2024-02-04T11:47:06;102192.06;;;10.82;100.00
71774;BME280;59607;52.130;5.430;2024-02-04T11:49:59;102185.84;;;10.83;100.00
71774;BME280;59607;52.130;5.430;2024-02-04T11:52:27;102188.47;;;10.83;100.00
71774;BME280;59607;52.130;5.430;2024-02-04T11:54:57;102187.75;;;10.81;100.00
71774;BME280;59607;52.130;5.430;2024-02-04T11:57:23;102190.00;;;10.85;100.00
71774;BME280;59607;52.130;5.430;2024-02-04T11:59:59;102186.44;;;10.86;100.00
71774;BME280;59607;52.130;5.430;2024-02-04T12:02:30;102182.38;;;10.82;100.00
71774;BME280;59607;52.130;5.430;2024-02-04T12:05:00;102182.38;;;10.82;100.00
71774;BME280;59607;52.130;5.430;2024-02-04T12:07:29;102182.53;;;10.81;100.00
71774;BME280;59607;52.130;5.430;2024-02-04T12:09:56;102169.13;;;10.84;100.00
71774;BME280;59607;52.130;5.430;2024-02-04T12:12:24;102173.31;;;10.86;100.00
71774;BME280;59607;52.130;5.430;2024-02-04T12:15:02;102170.41;;;10.90;100.00
71774;BME280;59607;52.130;5.430;2024-02-04T12:17:35;102165.16;;;10.90;100.00
71774;BME280;59607;52.130;5.430;2024-02-04T12:20:02;102158.81;;;10.92;100.00
71774;BME280;59607;52.130;5.430;2024-02-04T12:22:43;102164.63;;;10.96;100.00
71774;BME280;59607;52.130;5.430;2024-02-04T12:25:10;102167.84;;;11.00;100.00
71774;BME280;59607;52.130;5.430;2024-02-04T12:27:42;102150.25;;;11.00;100.00
71774;BME280;59607;52.130;5.430;2024-02-04T12:30:10;102154.13;;;10.96;100.00
71774;BME280;59607;52.130;5.430;2024-02-04T12:33:05;102152.09;;;11.00;100.00
71774;BME280;59607;52.130;5.430;2024-02-04T12:35:35;102149.31;;;11.01;100.00
71774;BME280;59607;52.130;5.430;2024-02-04T12:38:07;102153.47;;;11.04;100.00
71774;BME280;59607;52.130;5.430;2024-02-04T12:40:34;102154.97;;;11.06;100.00
71774;BME280;59607;52.130;5.430;2024-02-04T12:43:01;102158.44;;;11.07;100.00
71774;BME280;59607;52.130;5.430;2024-02-04T12:45:36;102167.03;;;11.09;100.00
71774;BME280;59607;52.130;5.430;2024-02-04T12:48:04;102162.59;;;11.09;100.00
71774;BME280;59607;52.130;5.430;2024-02-04T12:50:37;102165.34;;;11.08;100.00
71774;BME280;59607;52.130;5.430;2024-02-04T12:53:06;102148.91;;;11.06;100.00
71774;BME280;59607;52.130;5.430;2024-02-04T12:55:40;102150.31;;;11.10;100.00
71774;BME280;59607;52.130;5.430;2024-02-04T12:58:12;102134.41;;;11.11;100.00
71774;BME280;59607;52.130;5.430;2024-02-04T13:00:45;102122.97;;;11.13;100.00
71774;BME280;59607;52.130;5.430;2024-02-04T13:03:15;102128.47;;;11.09;100.00
71774;BME280;59607;52.130;5.430;2024-02-04T13:05:43;102117.16;;;11.09;100.00
71774;BME280;59607;52.130;5.430;2024-02-04T13:08:09;102131.91;;;11.10;100.00
71774;BME280;59607;52.130;5.430;2024-02-04T13:10:39;102131.91;;;11.10;100.00
71774;BME280;59607;52.130;5.430;2024-02-04T13:13:11;102144.09;;;11.11;100.00